Time;durP1;ratioP1;P1;durP2;ratioP2;P2;SDS_P1;SDS_P2;PMS_P1;PMS_P2;Temp;Humidity;BMP_temperature;BMP_pressure;BME280_temperature;BME280_humidity;BME280_pressure;Samples;Min_cycle;Max_cycle;Signal;HPM_P1;HPM_P2
2022/04/11 00:00:10;;;;;;;0.80;0.70;;;4.00;99.90;;;;;;5073381;28;20427;-68
2022/04/11 00:02:57;;;;;;;0.50;0.50;;;4.00;99.90;;;;;;5073244;28;20797;-68
2022/04/11 00:05:45;;;;;;;0.50;0.50;;;3.90;99.90;;;;;;5072983;28;20806;-68
2022/04/11 00:08:32;;;;;;;0.50;0.50;;;3.90;99.90;;;;;;5072786;28;20794;-68
2022/04/11 00:11:19;;;;;;;0.50;0.50;;;3.80;99.90;;;;;;5073044;28;20459;-67
2022/04/11 00:14:06;;;;;;;0.50;0.50;;;3.90;99.90;;;;;;5072883;28;20427;-68
2022/04/11 00:16:53;;;;;;;0.40;0.40;;;3.70;99.90;;;;;;5072808;28;20423;-67
2022/04/11 00:19:40;;;;;;;0.50;0.50;;;3.60;99.90;;;;;;5073057;28;20434;-68
2022/04/11 00:22:28;;;;;;;0.50;0.50;;;3.50;99.90;;;;;;5074033;28;20423;-67
2022/04/11 00:25:15;;;;;;;0.50;0.50;;;3.50;99.90;;;;;;5072832;28;20435;-67
2022/04/11 00:28:02;;;;;;;0.50;0.50;;;3.50;99.90;;;;;;5072571;28;20432;-68
2022/04/11 00:30:49;;;;;;;0.40;0.40;;;3.40;99.90;;;;;;5073318;28;20458;-68
2022/04/11 00:33:36;;;;;;;0.50;0.50;;;3.30;99.90;;;;;;5072044;28;20420;-68
2022/04/11 00:36:23;;;;;;;0.50;0.50;;;3.20;99.90;;;;;;5072378;28;20423;-68
2022/04/11 00:39:11;;;;;;;0.60;0.60;;;3.10;99.90;;;;;;5071877;28;20427;-68
2022/04/11 00:41:58;;;;;;;0.50;0.50;;;3.10;99.90;;;;;;5071184;28;20439;-68
2022/04/11 00:44:45;;;;;;;0.50;0.50;;;3.00;99.90;;;;;;5072184;28;20959;-68
2022/04/11 00:47:32;;;;;;;0.80;0.80;;;2.90;99.90;;;;;;5071721;28;20421;-67
2022/04/11 00:50:19;;;;;;;0.53;0.50;;;3.00;99.90;;;;;;5071367;28;20468;-68
2022/04/11 00:53:06;;;;;;;0.50;0.50;;;3.00;99.90;;;;;;5071197;28;20467;-67
2022/04/11 00:55:56;;;;;;;0.60;0.60;;;3.00;99.90;;;;;;5072748;28;20428;-68
2022/04/11 00:58:44;;;;;;;0.80;0.80;;;3.10;99.90;;;;;;5031925;28;20414;-68
2022/04/11 01:01:31;;;;;;;0.50;0.50;;;3.10;99.90;;;;;;5032919;28;20433;-68
2022/04/11 01:04:24;;;;;;;0.43;0.43;;;2.90;99.90;;;;;;5032489;28;20429;-68
2022/04/11 01:07:10;;;;;;;0.50;0.50;;;2.90;99.90;;;;;;5033490;28;20418;-68
2022/04/11 01:09:57;;;;;;;3.90;1.17;;;2.80;99.90;;;;;;5032435;28;20797;-68
2022/04/11 01:12:46;;;;;;;0.50;0.50;;;2.80;99.90;;;;;;5032599;28;20469;-68
2022/04/11 01:15:33;;;;;;;0.60;0.60;;;2.80;99.90;;;;;;5033241;28;20438;-68
2022/04/11 01:18:20;;;;;;;0.50;0.50;;;2.80;99.90;;;;;;5033252;28;20432;-68
2022/04/11 01:21:09;;;;;;;0.80;0.80;;;2.80;99.90;;;;;;5033016;28;20441;-66
2022/04/11 01:23:58;;;;;;;0.77;0.70;;;2.70;99.90;;;;;;5033585;28;20434;-67
2022/04/11 01:26:46;;;;;;;0.50;0.50;;;2.70;99.90;;;;;;5033359;28;20442;-67
2022/04/11 01:29:34;;;;;;;0.70;0.70;;;2.60;99.90;;;;;;5033276;28;20428;-67
2022/04/11 01:32:21;;;;;;;0.50;0.50;;;2.60;99.90;;;;;;5047277;28;20472;-67
2022/04/11 01:35:18;;;;;;;0.40;0.40;;;2.50;99.90;;;;;;5063181;28;20433;-68
2022/04/11 01:38:05;;;;;;;0.50;0.50;;;2.50;99.90;;;;;;5054396;28;20444;-68
2022/04/11 01:40:55;;;;;;;0.50;0.50;;;2.50;99.90;;;;;;5056825;28;20455;-68
2022/04/11 01:43:42;;;;;;;0.50;0.50;;;2.50;99.90;;;;;;5052360;28;20435;-68
2022/04/11 01:46:29;;;;;;;0.40;0.40;;;2.40;99.90;;;;;;5052805;28;20429;-68
2022/04/11 01:49:16;;;;;;;0.40;0.40;;;2.40;99.90;;;;;;5052623;28;20941;-68
2022/04/11 01:52:03;;;;;;;0.40;0.40;;;2.40;99.90;;;;;;5096580;22;20488;-71
2022/04/11 01:54:50;;;;;;;0.40;0.40;;;2.30;99.90;;;;;;5081907;28;20446;-69
2022/04/11 01:57:38;;;;;;;0.50;0.50;;;2.30;99.90;;;;;;5081677;28;20420;-70
2022/04/11 02:00:25;;;;;;;0.40;0.40;;;2.30;99.90;;;;;;5081859;28;20424;-71
2022/04/11 02:03:12;;;;;;;0.50;0.50;;;2.30;99.90;;;;;;5082953;28;20440;-75
2022/04/11 02:05:59;;;;;;;0.40;0.40;;;2.20;99.90;;;;;;5081982;28;20432;-70
2022/04/11 02:08:46;;;;;;;0.40;0.40;;;2.20;99.90;;;;;;5081705;28;20454;-70
2022/04/11 02:11:33;;;;;;;0.40;0.40;;;2.20;99.90;;;;;;5081136;28;20459;-69
2022/04/11 02:14:21;;;;;;;0.40;0.40;;;2.20;99.90;;;;;;5082292;28;20435;-69
2022/04/11 02:17:08;;;;;;;0.40;0.40;;;2.20;99.90;;;;;;5081674;28;20426;-70
2022/04/11 02:19:55;;;;;;;0.40;0.40;;;2.20;99.90;;;;;;5074543;28;20458;-72
2022/04/11 02:22:50;;;;;;;0.40;0.40;;;2.20;99.90;;;;;;5072096;28;20451;-70
2022/04/11 02:25:40;;;;;;;0.50;0.50;;;2.10;99.90;;;;;;5073013;28;20431;-69
2022/04/11 02:28:26;;;;;;;0.50;0.50;;;2.10;99.90;;;;;;5075921;28;20435;-70
2022/04/11 02:31:15;;;;;;;0.40;0.40;;;2.00;99.90;;;;;;5075965;28;20440;-70
2022/04/11 02:34:02;;;;;;;0.40;0.40;;;2.00;99.90;;;;;;5076971;28;20795;-72
2022/04/11 02:36:48;;;;;;;0.40;0.40;;;2.00;99.90;;;;;;5076437;28;20428;-74
2022/04/11 02:39:35;;;;;;;0.40;0.40;;;1.90;99.90;;;;;;5075441;28;20419;-72
2022/04/11 02:42:23;;;;;;;0.40;0.40;;;1.90;99.90;;;;;;5075731;28;20436;-70
2022/04/11 02:45:10;;;;;;;0.40;0.40;;;2.00;99.90;;;;;;5076288;28;20427;-69
2022/04/11 02:47:59;;;;;;;0.40;0.40;;;1.90;99.90;;;;;;5076052;28;20416;-69
2022/04/11 02:50:46;;;;;;;0.60;0.60;;;1.90;99.90;;;;;;5076712;28;20448;-69
2022/04/11 02:53:32;;;;;;;0.40;0.40;;;1.90;99.90;;;;;;5077001;28;20467;-70
2022/04/11 02:56:19;;;;;;;0.50;0.50;;;1.90;99.90;;;;;;5075884;28;20424;-70
2022/04/11 02:59:06;;;;;;;0.40;0.40;;;1.90;99.90;;;;;;5075370;28;20423;-70
2022/04/11 03:01:53;;;;;;;0.60;0.60;;;1.90;99.90;;;;;;5075137;28;20456;-72
2022/04/11 03:04:41;;;;;;;0.63;0.50;;;1.90;99.90;;;;;;5074633;28;20850;-69
2022/04/11 03:07:28;;;;;;;0.40;0.40;;;1.80;99.90;;;;;;5075272;28;20428;-70
2022/04/11 03:10:15;;;;;;;0.90;0.90;;;1.80;99.90;;;;;;5075510;28;20420;-70
2022/04/11 03:13:02;;;;;;;0.40;0.40;;;1.80;99.90;;;;;;5074663;28;20464;-69
2022/04/11 03:15:49;;;;;;;0.50;0.50;;;1.90;99.90;;;;;;5075058;28;20493;-69
2022/04/11 03:18:36;;;;;;;0.40;0.40;;;1.80;99.90;;;;;;5074988;28;20428;-70
2022/04/11 03:21:24;;;;;;;0.50;0.50;;;1.80;99.90;;;;;;5074367;28;20447;-69
2022/04/11 03:24:11;;;;;;;0.40;0.40;;;1.80;99.90;;;;;;5074847;28;20932;-69
2022/04/11 03:26:58;;;;;;;0.40;0.40;;;1.70;99.90;;;;;;5074419;28;20426;-70
2022/04/11 03:29:45;;;;;;;0.60;0.60;;;1.80;99.90;;;;;;5074549;28;20462;-70
2022/04/11 03:32:32;;;;;;;0.43;0.43;;;1.80;99.90;;;;;;5074088;28;20840;-70
2022/04/11 03:35:19;;;;;;;0.40;0.40;;;1.80;99.90;;;;;;5074299;28;20420;-69
2022/04/11 03:38:07;;;;;;;0.80;0.50;;;1.70;99.90;;;;;;5072873;28;20432;-70
2022/04/11 03:40:54;;;;;;;0.80;0.80;;;1.80;99.90;;;;;;5073758;28;20456;-70
2022/04/11 03:43:41;;;;;;;0.40;0.40;;;1.70;99.90;;;;;;5073609;28;20812;-71
2022/04/11 03:46:28;;;;;;;0.40;0.40;;;1.60;99.90;;;;;;5073782;28;20807;-70
2022/04/11 03:49:15;;;;;;;0.40;0.40;;;1.70;99.90;;;;;;5078131;28;20602;-70
2022/04/11 03:52:02;;;;;;;0.70;0.50;;;1.60;99.90;;;;;;5084678;28;20509;-70
2022/04/11 03:54:50;;;;;;;0.47;0.47;;;1.60;99.90;;;;;;5085700;28;20424;-70
2022/04/11 03:57:37;;;;;;;0.40;0.40;;;1.50;99.90;;;;;;5075344;28;20424;-70
2022/04/11 04:00:24;;;;;;;0.40;0.40;;;1.50;99.90;;;;;;5073540;28;20466;-70
2022/04/11 04:03:13;;;;;;;0.47;0.47;;;1.50;99.90;;;;;;5074595;28;20425;-70
2022/04/11 04:06:00;;;;;;;0.40;0.40;;;1.40;99.90;;;;;;5073345;28;20431;-70
2022/04/11 04:08:47;;;;;;;0.40;0.40;;;1.40;99.90;;;;;;5073223;28;20477;-70
2022/04/11 04:11:35;;;;;;;0.40;0.40;;;1.40;99.90;;;;;;5072162;28;20446;-70
2022/04/11 04:14:22;;;;;;;0.40;0.40;;;1.30;99.90;;;;;;5072628;28;20554;-70
2022/04/11 04:17:09;;;;;;;0.40;0.40;;;1.20;99.90;;;;;;5073405;28;20955;-70
2022/04/11 04:19:56;;;;;;;0.60;0.60;;;1.10;99.90;;;;;;5072885;28;20426;-70
2022/04/11 04:22:43;;;;;;;0.40;0.40;;;1.10;99.90;;;;;;5072893;28;20438;-70
2022/04/11 04:25:30;;;;;;;0.40;0.40;;;1.00;99.90;;;;;;5072726;28;20427;-70
2022/04/11 04:28:18;;;;;;;0.40;0.40;;;1.00;99.90;;;;;;5072558;28;20420;-72
2022/04/11 04:31:05;;;;;;;0.40;0.40;;;1.00;99.90;;;;;;5072531;28;20516;-73
2022/04/11 04:33:52;;;;;;;0.40;0.40;;;1.00;99.90;;;;;;5072368;28;20464;-71
2022/04/11 04:36:39;;;;;;;0.40;0.40;;;1.00;99.90;;;;;;5073076;28;20429;-70
2022/04/11 04:39:25;;;;;;;0.40;0.40;;;0.90;99.90;;;;;;5072764;28;20424;-71
2022/04/11 04:42:12;;;;;;;0.50;0.50;;;1.10;99.90;;;;;;5072526;28;20444;-71
2022/04/11 04:45:00;;;;;;;0.40;0.40;;;1.00;99.90;;;;;;5072859;28;21014;-71
2022/04/11 04:47:47;;;;;;;3.50;3.40;;;1.00;99.90;;;;;;5072888;28;20427;-70
2022/04/11 04:50:34;;;;;;;0.40;0.40;;;1.10;99.90;;;;;;5072640;28;20439;-71
2022/04/11 04:53:21;;;;;;;0.40;0.40;;;1.00;99.90;;;;;;5072523;28;20463;-71
2022/04/11 04:56:08;;;;;;;0.40;0.40;;;1.10;99.90;;;;;;5072254;28;20432;-71
2022/04/11 04:58:55;;;;;;;0.40;0.40;;;1.10;99.90;;;;;;5074078;28;20439;-70
2022/04/11 05:01:43;;;;;;;0.40;0.40;;;1.20;99.90;;;;;;5073852;28;21343;-70
2022/04/11 05:04:30;;;;;;;0.40;0.40;;;1.10;99.90;;;;;;5074103;28;20428;-70
2022/04/11 05:07:17;;;;;;;0.40;0.40;;;1.30;99.90;;;;;;5074512;28;20423;-71
2022/04/11 05:10:05;;;;;;;0.40;0.40;;;1.30;99.90;;;;;;5073723;28;20428;-71
2022/04/11 05:12:52;;;;;;;0.40;0.40;;;1.50;99.90;;;;;;5074123;28;20468;-71
2022/04/11 05:15:42;;;;;;;0.40;0.40;;;1.60;99.90;;;;;;5073639;28;20492;-71
2022/04/11 05:18:30;;;;;;;0.40;0.40;;;1.70;99.90;;;;;;5073569;28;20431;-71
2022/04/11 05:21:17;;;;;;;0.40;0.40;;;1.80;99.90;;;;;;5073970;28;20800;-71
2022/04/11 05:24:05;;;;;;;0.40;0.40;;;2.00;99.90;;;;;;5087931;28;20932;-70
2022/04/11 05:26:52;;;;;;;0.40;0.40;;;2.10;99.90;;;;;;5087563;28;20478;-71
2022/04/11 05:29:39;;;;;;;0.60;0.47;;;2.20;99.90;;;;;;5092981;28;20411;-70
2022/04/11 05:32:26;;;;;;;0.40;0.40;;;2.30;99.90;;;;;;5091743;28;20452;-71
2022/04/11 05:35:14;;;;;;;0.50;0.50;;;2.40;99.90;;;;;;5084520;28;20427;-71
2022/04/11 05:38:01;;;;;;;0.40;0.40;;;2.60;99.90;;;;;;5074222;28;20434;-71
2022/04/11 05:40:48;;;;;;;0.40;0.40;;;2.60;99.90;;;;;;5075035;28;20493;-71
2022/04/11 05:43:35;;;;;;;0.40;0.40;;;2.70;99.90;;;;;;5073629;28;20932;-71
2022/04/11 05:46:22;;;;;;;0.40;0.40;;;2.80;99.90;;;;;;5073994;28;20419;-71
2022/04/11 05:49:09;;;;;;;0.60;0.60;;;2.80;99.90;;;;;;5073722;28;20938;-70
2022/04/11 05:51:57;;;;;;;0.40;0.40;;;2.80;99.90;;;;;;5072762;28;21012;-71
2022/04/11 05:54:44;;;;;;;0.40;0.40;;;2.90;99.90;;;;;;5072256;28;20467;-71
2022/04/11 05:57:31;;;;;;;0.40;0.40;;;3.00;99.90;;;;;;5073291;28;20427;-71
2022/04/11 06:00:18;;;;;;;0.40;0.40;;;3.00;99.90;;;;;;5073537;28;20813;-71
2022/04/11 06:03:05;;;;;;;0.40;0.40;;;3.10;99.90;;;;;;5055968;28;21180;-71
2022/04/11 06:05:52;;;;;;;1.13;1.13;;;3.20;99.90;;;;;;5057330;28;20991;-70
2022/04/11 06:08:40;;;;;;;0.40;0.40;;;3.20;99.90;;;;;;5067215;28;20451;-71
2022/04/11 06:11:28;;;;;;;0.90;0.47;;;3.20;99.90;;;;;;5076926;28;20906;-71
2022/04/11 06:14:15;;;;;;;0.50;0.50;;;3.20;99.90;;;;;;5077086;28;20979;-70
2022/04/11 06:17:02;;;;;;;1.17;1.07;;;3.30;99.90;;;;;;5077322;28;20458;-71
2022/04/11 06:19:49;;;;;;;0.40;0.40;;;3.40;99.90;;;;;;5061217;28;20453;-71
2022/04/11 06:22:39;;;;;;;0.40;0.40;;;3.50;99.90;;;;;;5068228;28;20984;-70
2022/04/11 06:25:28;;;;;;;0.60;0.50;;;3.60;99.90;;;;;;5077798;28;20432;-71
2022/04/11 06:28:15;;;;;;;0.50;0.50;;;3.80;99.90;;;;;;5076350;28;20442;-71
2022/04/11 06:31:02;;;;;;;1.00;1.00;;;3.80;99.90;;;;;;5071704;28;20528;-71
2022/04/11 06:33:49;;;;;;;0.60;0.60;;;;;;;;;;5082650;28;20481;-70
2022/04/11 06:36:36;;;;;;;0.40;0.40;;;4.10;99.90;;;;;;5093619;28;20466;-71
2022/04/11 06:39:23;;;;;;;0.90;0.90;;;4.10;99.90;;;;;;5076020;28;20474;-69
2022/04/11 06:42:11;;;;;;;1.63;0.80;;;4.20;99.90;;;;;;5056739;28;20432;-71
2022/04/11 06:44:58;;;;;;;0.50;0.50;;;4.30;99.90;;;;;;5066527;28;20439;-71
2022/04/11 06:47:47;;;;;;;1.37;0.90;;;4.40;99.90;;;;;;5076313;28;20428;-71
2022/04/11 06:50:34;;;;;;;0.50;0.50;;;4.50;99.90;;;;;;5074205;28;20428;-71
2022/04/11 06:53:21;;;;;;;0.87;0.67;;;4.60;99.90;;;;;;5085104;28;20467;-71
2022/04/11 06:56:08;;;;;;;2.13;1.27;;;4.60;99.90;;;;;;5075856;28;20439;-70
2022/04/11 06:58:57;;;;;;;0.70;0.70;;;4.70;99.90;;;;;;5076733;28;20854;-70
2022/04/11 07:01:43;;;;;;;2.00;1.70;;;4.90;99.90;;;;;;5069823;28;20450;-70
2022/04/11 07:04:30;;;;;;;0.40;0.40;;;4.90;99.90;;;;;;5077754;28;20432;-71
2022/04/11 07:07:18;;;;;;;0.97;0.87;;;5.00;99.90;;;;;;5076304;28;20424;-71
2022/04/11 07:10:06;;;;;;;0.63;0.63;;;5.10;99.90;;;;;;5076057;28;20416;-71
2022/04/11 07:12:53;;;;;;;0.50;0.50;;;5.10;99.90;;;;;;5075356;28;20438;-70
2022/04/11 07:15:41;;;;;;;0.50;0.50;;;5.20;99.90;;;;;;5076288;28;20423;-71
2022/04/11 07:18:28;;;;;;;0.40;0.40;;;5.30;99.90;;;;;;5076027;28;20438;-70
2022/04/11 07:21:15;;;;;;;2.20;1.23;;;5.50;99.90;;;;;;5076502;28;20517;-71
2022/04/11 07:24:02;;;;;;;0.60;0.60;;;5.50;99.90;;;;;;5076431;28;20419;-69
2022/04/11 07:26:49;;;;;;;0.87;0.60;;;5.60;99.90;;;;;;5076764;28;20427;-69
2022/04/11 07:29:36;;;;;;;4.83;1.03;;;5.70;99.90;;;;;;5076664;28;20515;-70
2022/04/11 07:32:24;;;;;;;0.40;0.40;;;5.70;99.90;;;;;;5075440;28;20447;-70
2022/04/11 07:35:11;;;;;;;2.67;0.93;;;5.80;99.90;;;;;;5075645;28;20468;-69
2022/04/11 07:38:00;;;;;;;1.13;1.00;;;6.00;99.90;;;;;;5077152;28;20438;-70
2022/04/11 07:40:47;;;;;;;0.77;0.57;;;6.10;99.90;;;;;;5076291;28;20436;-72
2022/04/11 07:43:35;;;;;;;1.93;0.80;;;6.20;99.90;;;;;;5080707;28;20416;-71
2022/04/11 07:46:22;;;;;;;1.40;1.20;;;6.30;99.90;;;;;;5080875;28;20415;-71
2022/04/11 07:49:10;;;;;;;0.50;0.50;;;6.40;99.90;;;;;;5077320;28;20430;-71
2022/04/11 07:51:57;;;;;;;0.47;0.47;;;6.50;99.90;;;;;;5078154;28;20462;-71
2022/04/11 07:54:44;;;;;;;0.40;0.40;;;6.70;99.90;;;;;;5081826;28;20481;-73
2022/04/11 07:57:31;;;;;;;0.40;0.40;;;6.70;99.90;;;;;;5081449;28;20424;-71
2022/04/11 08:00:18;;;;;;;0.60;0.60;;;6.80;99.90;;;;;;5078501;28;20417;-71
2022/04/11 08:03:05;;;;;;;0.40;0.40;;;6.90;99.90;;;;;;5070548;28;20421;-68
2022/04/11 08:05:53;;;;;;;5.10;1.03;;;7.00;99.90;;;;;;5062962;28;20428;-71
2022/04/11 08:08:44;;;;;;;0.73;0.73;;;7.10;99.90;;;;;;5063890;28;20451;-72
2022/04/11 08:11:31;;;;;;;3.13;0.97;;;7.10;99.90;;;;;;5063189;28;20443;-71
2022/04/11 08:14:18;;;;;;;0.73;0.53;;;7.20;99.90;;;;;;5064322;28;20555;-70
2022/04/11 08:17:05;;;;;;;1.07;1.07;;;7.30;99.90;;;;;;5068785;28;20455;-69
2022/04/11 08:19:52;;;;;;;1.50;1.40;;;7.40;99.90;;;;;;5078146;28;20419;-70
2022/04/11 08:22:41;;;;;;;0.50;0.50;;;7.50;99.90;;;;;;5080382;28;20980;-69
2022/04/11 08:25:28;;;;;;;0.90;0.70;;;7.50;99.90;;;;;;5081497;28;20478;-70
2022/04/11 08:28:15;;;;;;;0.40;0.40;;;7.60;99.90;;;;;;5076715;28;20420;-71
2022/04/11 08:31:01;;;;;;;0.50;0.50;;;7.60;99.90;;;;;;5076645;28;20847;-70
2022/04/11 08:33:49;;;;;;;0.53;0.53;;;7.70;99.90;;;;;;5075899;28;20455;-71
2022/04/11 08:36:36;;;;;;;0.83;0.80;;;7.80;99.90;;;;;;5071855;28;20451;-71
2022/04/11 08:39:24;;;;;;;0.40;0.40;;;7.80;99.90;;;;;;5068576;28;20503;-71
2022/04/11 08:42:12;;;;;;;2.10;0.63;;;7.90;99.90;;;;;;5060091;28;20466;-71
2022/04/11 08:45:01;;;;;;;0.93;0.60;;;7.80;99.90;;;;;;5054298;28;20429;-71
2022/04/11 08:47:50;;;;;;;0.50;0.50;;;8.00;99.90;;;;;;5054690;28;20424;-70
2022/04/11 08:50:37;;;;;;;0.40;0.40;;;8.00;99.90;;;;;;5055540;28;20447;-70
2022/04/11 08:53:24;;;;;;;0.60;0.60;;;8.00;99.90;;;;;;5051591;28;20447;-72
2022/04/11 08:56:12;;;;;;;0.40;0.40;;;8.10;99.90;;;;;;5065372;28;20415;-71
2022/04/11 08:58:59;;;;;;;0.50;0.50;;;8.10;99.90;;;;;;5072593;28;20415;-71
2022/04/11 09:01:46;;;;;;;3.17;1.60;;;8.10;99.90;;;;;;5048735;28;20471;-72
2022/04/11 09:04:48;;;;;;;0.80;0.80;;;8.20;99.90;;;;;;5056145;28;20425;-72
2022/04/11 09:07:46;;;;;;;0.77;0.77;;;8.30;99.90;;;;;;5056469;28;20432;-70
2022/04/11 09:10:37;;;;;;;2.33;0.70;;;8.40;99.90;;;;;;5073121;28;20431;-69
2022/04/11 09:13:25;;;;;;;0.67;0.50;;;8.50;99.90;;;;;;5055219;28;20432;-69
2022/04/11 09:16:12;;;;;;;0.50;0.50;;;8.40;99.90;;;;;;5060983;28;20415;-70
2022/04/11 09:18:59;;;;;;;0.40;0.40;;;8.50;99.90;;;;;;5074578;28;20939;-70
2022/04/11 09:21:46;;;;;;;0.40;0.40;;;8.60;99.90;;;;;;5074177;28;20447;-70
2022/04/11 09:24:33;;;;;;;0.57;0.57;;;8.70;99.90;;;;;;5074509;28;20423;-71
2022/04/11 09:27:23;;;;;;;2.97;0.70;;;8.80;99.90;;;;;;5085979;28;20446;-70
2022/04/11 09:30:26;;;;;;;0.40;0.40;;;8.70;99.90;;;;;;5094418;28;20427;-71
2022/04/11 09:33:14;;;;;;;1.00;0.93;;;8.80;99.90;;;;;;5093682;28;20422;-71
2022/04/11 09:36:01;;;;;;;0.50;0.50;;;8.90;99.90;;;;;;5094211;28;20469;-71
2022/04/11 09:38:58;;;;;;;1.10;0.57;;;9.00;99.90;;;;;;5098096;28;20435;-71
2022/04/11 09:41:46;;;;;;;0.50;0.50;;;9.10;99.90;;;;;;5097988;28;20947;-70
2022/04/11 09:44:35;;;;;;;0.40;0.40;;;9.20;99.90;;;;;;5098189;28;20427;-70
2022/04/11 09:47:23;;;;;;;1.47;0.60;;;9.30;99.90;;;;;;5099865;28;20453;-70
2022/04/11 09:50:11;;;;;;;0.87;0.87;;;9.30;99.90;;;;;;5074485;28;20418;-70
2022/04/11 09:53:09;;;;;;;0.50;0.50;;;9.40;99.90;;;;;;5057949;28;20416;-70
2022/04/11 09:55:56;;;;;;;0.60;0.53;;;9.40;99.90;;;;;;5072311;28;20467;-71
2022/04/11 09:58:43;;;;;;;0.50;0.50;;;9.50;99.90;;;;;;5071881;28;20438;-71
2022/04/11 10:01:30;;;;;;;0.40;0.40;;;9.50;99.90;;;;;;5077518;28;20447;-71
2022/04/11 10:04:19;;;;;;;0.40;0.40;;;9.60;99.90;;;;;;5071392;28;20521;-71
2022/04/11 10:07:10;;;;;;;0.90;0.60;;;9.70;99.90;;;;;;5074238;28;20439;-72
2022/04/11 10:09:58;;;;;;;0.80;0.80;;;9.70;99.90;;;;;;5077479;28;20436;-72
2022/04/11 10:12:45;;;;;;;0.40;0.40;;;9.70;99.90;;;;;;5076416;28;20447;-73
2022/04/11 10:15:32;;;;;;;0.67;0.67;;;9.70;99.90;;;;;;5076789;28;20471;-73
2022/04/11 10:18:22;;;;;;;0.40;0.40;;;9.90;99.90;;;;;;5076256;28;20424;-71
2022/04/11 10:21:11;;;;;;;0.53;0.53;;;10.10;99.90;;;;;;5076480;28;20451;-72
2022/04/11 10:24:05;;;;;;;0.40;0.40;;;10.10;99.90;;;;;;5076385;28;20431;-72
2022/04/11 10:26:54;;;;;;;0.40;0.40;;;10.10;99.90;;;;;;5076843;28;20435;-71
2022/04/11 10:29:41;;;;;;;0.40;0.40;;;10.30;99.90;;;;;;5076348;28;20423;-72
2022/04/11 10:32:29;;;;;;;0.40;0.40;;;10.20;99.90;;;;;;5077063;28;20447;-72
2022/04/11 10:35:32;;;;;;;0.50;0.50;;;10.10;99.90;;;;;;5072102;28;20539;-72
2022/04/11 10:38:21;;;;;;;0.50;0.50;;;10.20;99.90;;;;;;5067952;28;21230;-71
2022/04/11 10:41:08;;;;;;;0.40;0.40;;;10.20;99.90;;;;;;5074416;28;20443;-70
2022/04/11 10:44:30;;;;;;;0.40;0.40;;;10.20;99.90;;;;;;5072307;28;20436;-72
2022/04/11 10:47:35;;;;;;;0.93;0.93;;;10.40;99.90;;;;;;5069877;28;20443;-71
2022/04/11 10:50:32;;;;;;;0.60;0.60;;;10.70;99.90;;;;;;5073649;28;20447;-70
2022/04/11 10:53:25;;;;;;;0.60;0.60;;;10.80;99.90;;;;;;5068987;28;20805;-71
2022/04/11 10:56:12;;;;;;;0.40;0.40;;;10.80;99.90;;;;;;5067413;28;20468;-71
2022/04/11 10:58:59;;;;;;;0.40;0.40;;;11.20;99.90;;;;;;5080229;28;20440;-71
2022/04/11 11:01:56;;;;;;;0.43;0.43;;;11.40;99.90;;;;;;5075975;28;20447;-71
2022/04/11 11:04:43;;;;;;;0.57;0.57;;;11.40;99.90;;;;;;5075590;28;20427;-71
2022/04/11 11:07:32;;;;;;;1.53;1.47;;;11.60;99.80;;;;;;5073520;28;20453;-70
2022/04/11 11:10:39;;;;;;;1.20;1.00;;;11.40;99.00;;;;;;5073804;28;20427;-70
2022/04/11 11:13:31;;;;;;;0.87;0.87;;;11.10;98.90;;;;;;5077317;28;20766;-71
2022/04/11 11:16:35;;;;;;;0.40;0.40;;;10.90;99.90;;;;;;5075063;28;20474;-71
2022/04/11 11:19:22;;;;;;;0.40;0.40;;;11.30;99.90;;;;;;5077685;28;20485;-71
2022/04/11 11:22:09;;;;;;;0.40;0.40;;;11.70;98.70;;;;;;5077726;28;20459;-71
2022/04/11 11:25:16;;;;;;;1.43;1.43;;;12.10;98.30;;;;;;5077998;28;20423;-71
2022/04/11 11:28:06;;;;;;;0.57;0.50;;;12.00;96.60;;;;;;5076299;28;20431;-71
2022/04/11 11:30:53;;;;;;;0.40;0.40;;;11.80;96.40;;;;;;5076860;28;20447;-71
2022/04/11 11:33:51;;;;;;;0.50;0.50;;;11.70;96.90;;;;;;5079637;28;20471;-70
2022/04/11 11:36:39;;;;;;;0.40;0.40;;;11.60;97.10;;;;;;5081389;28;20424;-71
2022/04/11 11:39:27;;;;;;;0.40;0.40;;;11.50;97.00;;;;;;5083502;28;20427;-70
2022/04/11 11:42:15;;;;;;;0.50;0.50;;;11.40;97.00;;;;;;5079685;28;20466;-71
2022/04/11 11:45:05;;;;;;;2.87;0.87;;;11.50;96.60;;;;;;5076668;28;20411;-71
2022/04/11 11:47:52;;;;;;;0.50;0.50;;;11.70;96.20;;;;;;5073036;28;20428;-71
2022/04/11 11:50:39;;;;;;;0.73;0.73;;;12.10;95.00;;;;;;5074298;28;20427;-71
2022/04/11 11:53:39;;;;;;;0.70;0.70;;;12.40;94.50;;;;;;5074153;28;20784;-71
2022/04/11 11:56:40;;;;;;;0.40;0.40;;;12.50;94.40;;;;;;5069936;28;20503;-70
2022/04/11 11:59:27;;;;;;;0.60;0.60;;;12.60;94.10;;;;;;5073840;28;20427;-71
2022/04/11 12:05:23;;;;;;;0.60;0.60;;;12.60;93.50;;;;;;5074889;28;20424;-71
2022/04/11 12:08:17;;;;;;;0.40;0.40;;;12.60;93.50;;;;;;5073488;28;20431;-71
2022/04/11 12:11:04;;;;;;;0.70;0.70;;;13.10;93.60;;;;;;5073851;28;20467;-72
2022/04/11 12:13:59;;;;;;;0.40;0.40;;;13.50;92.70;;;;;;5072180;28;20506;-71
2022/04/11 12:16:58;;;;;;;0.70;0.70;;;13.60;92.60;;;;;;5054306;28;20424;-71
2022/04/11 12:19:47;;;;;;;0.40;0.40;;;13.80;92.10;;;;;;5053986;28;20448;-71
2022/04/11 12:22:34;;;;;;;0.60;0.60;;;13.80;90.90;;;;;;5058812;28;20823;-73
2022/04/11 12:25:26;;;;;;;0.40;0.40;;;13.60;89.40;;;;;;5074825;28;20432;-73
2022/04/11 12:28:16;;;;;;;0.83;0.83;;;13.20;88.70;;;;;;5074970;28;20437;-71
2022/04/11 12:31:12;;;;;;;0.47;0.40;;;13.20;89.50;;;;;;5086713;28;20447;-71
2022/04/11 12:34:10;;;;;;;0.40;0.40;;;13.20;89.70;;;;;;5067165;28;76201;-71
2022/04/11 12:37:02;;;;;;;0.60;0.50;;;13.00;89.00;;;;;;5045021;28;20406;-71
2022/04/11 12:39:51;;;;;;;1.10;1.00;;;12.80;88.90;;;;;;5031841;28;20462;-71
2022/04/11 12:42:38;;;;;;;0.40;0.40;;;12.60;89.30;;;;;;5038058;28;20488;-70
2022/04/11 12:45:25;;;;;;;0.40;0.40;;;12.50;89.20;;;;;;5037015;28;20475;-71
2022/04/11 12:48:12;;;;;;;0.60;0.60;;;12.80;89.00;;;;;;5033578;28;20429;-71
2022/04/11 12:51:10;;;;;;;1.43;0.80;;;13.00;88.20;;;;;;5033919;28;20457;-71
2022/04/11 12:54:07;;;;;;;2.87;0.50;;;13.60;88.70;;;;;;5031480;28;20446;-71
2022/04/11 12:57:02;;;;;;;0.40;0.40;;;13.90;86.10;;;;;;5033586;28;20425;-71
2022/04/11 12:59:49;;;;;;;0.53;0.53;;;14.30;87.00;;;;;;5032951;28;20914;-71
2022/04/11 13:02:36;;;;;;;1.03;0.93;;;15.00;85.00;;;;;;5024964;28;20589;-71
2022/04/11 13:05:59;;;;;;;0.40;0.40;;;15.40;82.40;;;;;;5068649;28;20551;-72
2022/04/11 13:08:46;;;;;;;0.80;0.73;;;16.50;81.00;;;;;;5085283;28;20466;-73
2022/04/11 13:11:40;;;;;;;2.90;2.70;;;18.10;77.50;;;;;;5057759;28;184893;-73
2022/04/11 13:14:28;;;;;;;0.40;0.40;;;19.70;72.70;;;;;;5049245;28;20205;-73
2022/04/11 13:20:56;;;;;;;0.40;0.40;;;21.50;61.50;;;;;;5067741;27;20692;-74
2022/04/11 13:23:45;;;;;;;0.50;0.50;;;20.50;61.40;;;;;;5025583;28;20217;-72
2022/04/11 13:26:33;;;;;;;0.85;0.85;;;20.30;60.80;;;;;;5029026;28;20205;-72
2022/04/11 13:29:21;;;;;;;0.40;0.40;;;19.40;60.10;;;;;;5028711;28;20218;-72
2022/04/11 13:32:10;;;;;;;0.50;0.50;;;19.00;62.20;;;;;;5026545;28;20237;-72
2022/04/11 13:34:58;;;;;;;0.40;0.40;;;20.10;59.70;;;;;;5029540;28;20198;-72
2022/04/11 13:37:49;;;;;;;0.63;0.63;;;20.60;59.90;;;;;;5053775;28;20201;-72
2022/04/11 13:40:37;;;;;;;1.02;0.52;;;22.00;57.70;;;;;;5065390;28;20251;-72
2022/04/11 13:43:25;;;;;;;0.40;0.40;;;22.10;55.10;;;;;;5059287;28;20718;-72
2022/04/11 13:46:13;;;;;;;0.40;0.30;;;23.10;53.90;;;;;;5067458;28;20200;-72
2022/04/11 13:49:01;;;;;;;1.20;1.20;;;24.70;52.90;;;;;;5061712;28;20238;-72
2022/04/11 13:51:49;;;;;;;0.50;0.50;;;23.50;50.50;;;;;;5057842;28;68291;-74
2022/04/11 13:54:46;;;;;;;0.50;0.50;;;21.20;52.10;;;;;;5068356;28;20603;-72
2022/04/11 13:57:35;;;;;;;3.25;0.88;;;19.60;54.50;;;;;;5048498;28;20205;-72
2022/04/11 14:00:25;;;;;;;0.50;0.50;;;21.20;52.80;;;;;;5063214;28;20676;-73
2022/04/11 14:03:14;;;;;;;0.52;0.52;;;21.10;53.30;;;;;;5072685;28;20215;-72
2022/04/11 14:06:02;;;;;;;0.77;0.77;;;19.90;53.10;;;;;;5062119;28;20213;-72
2022/04/11 14:08:51;;;;;;;0.47;0.47;;;18.60;55.90;;;;;;5066396;28;20669;-71
2022/04/11 14:11:41;;;;;;;0.65;0.65;;;19.70;55.20;;;;;;5065412;28;20577;-72
2022/04/11 14:14:29;;;;;;;0.40;0.40;;;21.90;53.20;;;;;;5063319;28;21102;-72
2022/04/11 14:17:17;;;;;;;0.60;0.60;;;23.90;51.30;;;;;;5064667;28;20585;-72
2022/04/11 14:20:07;;;;;;;0.40;0.40;;;25.70;48.60;;;;;;5066182;28;20204;-72
2022/04/11 14:22:55;;;;;;;0.63;0.63;;;25.80;48.20;;;;;;5074239;28;20205;-72
2022/04/11 14:25:43;;;;;;;0.50;0.40;;;26.40;46.20;;;;;;5076827;28;20677;-71
2022/04/11 14:28:33;;;;;;;1.10;1.10;;;24.90;46.30;;;;;;5073314;28;20204;-72
2022/04/11 14:31:21;;;;;;;0.40;0.40;;;22.90;47.40;;;;;;5061318;28;20225;-72
2022/04/11 14:34:09;;;;;;;1.20;1.20;;;21.40;48.10;;;;;;5053322;28;20284;-72
2022/04/11 14:36:58;;;;;;;0.47;0.47;;;20.40;49.10;;;;;;5038445;28;20197;-72
2022/04/11 14:39:46;;;;;;;0.40;0.40;;;19.40;50.00;;;;;;5054406;28;20740;-72
2022/04/11 14:42:35;;;;;;;0.40;0.40;;;18.30;52.00;;;;;;5053746;28;20232;-72
2022/04/11 14:45:24;;;;;;;0.40;0.40;;;17.40;52.90;;;;;;5054891;28;20616;-72
2022/04/11 14:48:12;;;;;;;0.40;0.40;;;16.90;53.50;;;;;;5054816;28;20207;-72
2022/04/11 14:51:00;;;;;;;0.40;0.40;;;17.00;53.80;;;;;;5054088;28;20228;-72
2022/04/11 14:53:49;;;;;;;0.40;0.40;;;17.10;54.50;;;;;;5053432;28;20212;-72